Time;durP1;ratioP1;P1;durP2;ratioP2;P2;SDS_P1;SDS_P2;PMS_P1;PMS_P2;Temp;Humidity;BMP_temperature;BMP_pressure;BME280_temperature;BME280_humidity;BME280_pressure;Samples;Min_cycle;Max_cycle;Signal;HPM_P1;HPM_P2
2023/05/26 00:02:05;;;;;;;16.80;11.77;;;20.50;95.40;;;;;;5092482;28;20045;-79
2023/05/26 00:05:09;;;;;;;18.55;9.23;;;20.60;94.50;;;;;;5092147;28;20051;-78
2023/05/26 00:08:13;;;;;;;18.92;9.88;;;20.50;94.70;;;;;;5079320;28;20419;-78
2023/05/26 00:11:17;;;;;;;16.70;10.32;;;20.40;95.60;;;;;;5079733;28;20051;-78
2023/05/26 00:14:21;;;;;;;15.75;9.98;;;20.30;95.80;;;;;;5091608;28;20523;-78
2023/05/26 00:17:25;;;;;;;16.65;9.57;;;20.20;96.20;;;;;;5091791;28;20043;-78
2023/05/26 00:20:29;;;;;;;17.05;9.70;;;20.20;96.20;;;;;;5091993;28;20502;-78
2023/05/26 00:23:33;;;;;;;16.70;9.68;;;20.10;96.10;;;;;;5091455;28;20391;-77
2023/05/26 00:26:37;;;;;;;16.38;9.10;;;20.20;95.80;;;;;;5091947;28;20055;-78
2023/05/26 00:29:42;;;;;;;18.80;9.88;;;20.20;95.20;;;;;;5079397;28;20050;-76
2023/05/26 00:32:47;;;;;;;13.98;8.63;;;20.10;95.00;;;;;;5079029;28;20043;-77
2023/05/26 00:35:51;;;;;;;14.75;8.88;;;20.20;94.30;;;;;;5091898;28;20051;-76
2023/05/26 00:38:55;;;;;;;13.15;7.95;;;20.30;95.20;;;;;;5091319;28;20039;-76
2023/05/26 00:42:01;;;;;;;12.52;8.88;;;20.30;93.30;;;;;;5078963;28;20527;-76
2023/05/26 00:45:06;;;;;;;14.10;7.63;;;20.20;94.20;;;;;;5078987;28;20046;-77
2023/05/26 00:48:10;;;;;;;25.50;9.20;;;20.20;94.50;;;;;;5091236;28;20035;-76
2023/05/26 00:51:14;;;;;;;14.10;8.70;;;20.20;94.50;;;;;;5079016;28;20047;-76
2023/05/26 00:54:19;;;;;;;16.75;8.85;;;20.20;94.60;;;;;;5090902;28;20050;-76
2023/05/26 00:57:23;;;;;;;13.88;8.40;;;20.30;94.80;;;;;;5091552;28;20046;-76
2023/05/26 01:00:28;;;;;;;13.02;8.75;;;20.30;94.70;;;;;;5078574;28;20102;-77
2023/05/26 01:03:32;;;;;;;14.23;8.43;;;20.30;94.60;;;;;;5078620;28;20051;-76
2023/05/26 01:06:36;;;;;;;13.35;7.90;;;20.20;95.20;;;;;;5078687;28;20046;-78
2023/05/26 01:09:40;;;;;;;11.70;7.38;;;20.10;94.80;;;;;;5078304;28;20400;-76
2023/05/26 01:12:58;;;;;;;19.00;8.38;;;20.00;94.20;;;;;;5078416;28;20051;-77
2023/05/26 01:16:08;;;;;;;13.90;7.53;;;20.00;94.20;;;;;;5078768;28;20383;-78
2023/05/26 01:19:16;;;;;;;13.07;7.95;;;19.80;94.00;;;;;;5091331;28;20051;-77
2023/05/26 01:22:45;;;;;;;16.30;7.82;;;19.80;93.50;;;;;;5091026;28;20051;-77
2023/05/26 01:26:15;;;;;;;13.95;7.35;;;19.80;93.10;;;;;;5091042;28;20051;-77
2023/05/26 01:29:23;;;;;;;15.13;7.45;;;19.90;93.10;;;;;;5091117;28;20051;-77
2023/05/26 01:32:27;;;;;;;11.30;6.65;;;20.00;93.10;;;;;;5090970;28;20047;-76
2023/05/26 01:35:31;;;;;;;12.23;7.32;;;20.10;92.80;;;;;;5090828;28;20067;-77
2023/05/26 01:38:35;;;;;;;9.15;6.63;;;20.10;92.30;;;;;;5090908;28;20043;-77
2023/05/26 01:41:56;;;;;;;10.20;6.50;;;20.00;92.40;;;;;;5091327;28;20039;-76
2023/05/26 01:45:06;;;;;;;12.77;7.30;;;19.90;92.10;;;;;;5066733;28;20047;-77
2023/05/26 01:48:11;;;;;;;8.52;6.13;;;20.00;92.20;;;;;;5090659;28;20059;-76
2023/05/26 01:51:17;;;;;;;18.38;7.60;;;20.00;92.90;;;;;;5078200;28;20047;-76
2023/05/26 01:54:24;;;;;;;8.65;6.65;;;20.00;93.10;;;;;;5089585;28;20070;-76
2023/05/26 01:57:30;;;;;;;15.68;8.07;;;19.90;93.60;;;;;;5078478;28;20040;-77
2023/05/26 02:00:35;;;;;;;8.35;6.60;;;19.80;93.80;;;;;;5078411;28;20106;-77
2023/05/26 02:03:42;;;;;;;13.48;6.70;;;19.70;93.20;;;;;;5081948;28;20055;-75
2023/05/26 02:06:46;;;;;;;11.23;6.97;;;19.70;93.40;;;;;;5081850;28;20059;-75
2023/05/26 02:09:52;;;;;;;11.38;6.22;;;19.70;94.00;;;;;;5070603;28;20043;-77
2023/05/26 02:12:55;;;;;;;11.05;6.80;;;19.80;92.50;;;;;;5081685;28;20399;-77
2023/05/26 02:16:00;;;;;;;9.77;6.82;;;19.80;93.00;;;;;;5081905;28;20055;-76
2023/05/26 02:19:03;;;;;;;15.38;6.40;;;19.70;92.60;;;;;;5094001;28;20035;-76
2023/05/26 02:22:12;;;;;;;9.93;6.50;;;19.80;92.20;;;;;;5081675;28;20059;-76
2023/05/26 02:25:17;;;;;;;15.52;7.25;;;19.90;92.80;;;;;;5081524;28;20256;-76
2023/05/26 02:28:21;;;;;;;16.98;7.20;;;19.90;93.70;;;;;;5094176;28;20047;-77
2023/05/26 02:31:25;;;;;;;12.23;6.45;;;19.80;93.70;;;;;;5081412;28;20035;-76
2023/05/26 02:34:31;;;;;;;10.90;7.03;;;19.70;93.10;;;;;;5081128;28;20055;-75
2023/05/26 02:37:35;;;;;;;9.70;6.65;;;19.70;92.50;;;;;;5081323;28;20507;-76
2023/05/26 02:40:39;;;;;;;9.55;6.20;;;19.80;92.50;;;;;;5093806;28;20055;-76
2023/05/26 02:43:43;;;;;;;9.63;6.53;;;19.90;92.80;;;;;;5093710;28;20067;-77
2023/05/26 02:46:49;;;;;;;20.52;7.47;;;20.00;92.20;;;;;;5093600;28;20583;-77
2023/05/26 02:49:54;;;;;;;11.63;7.40;;;19.90;92.80;;;;;;5080947;28;20040;-75
2023/05/26 02:52:58;;;;;;;10.98;7.03;;;19.90;93.00;;;;;;5069233;28;20043;-76
2023/05/26 02:56:03;;;;;;;11.88;6.97;;;19.90;93.30;;;;;;5093415;28;20054;-77
2023/05/26 02:59:06;;;;;;;12.93;6.95;;;19.70;93.60;;;;;;5093617;28;20051;-77
2023/05/26 03:02:11;;;;;;;8.32;7.30;;;19.50;93.40;;;;;;5093383;28;20499;-77
2023/05/26 03:05:15;;;;;;;10.20;7.15;;;19.50;93.80;;;;;;5093493;28;20043;-76
2023/05/26 03:08:20;;;;;;;13.73;7.60;;;19.50;93.90;;;;;;5080615;28;20051;-77
2023/05/26 03:11:23;;;;;;;14.10;7.95;;;19.50;94.00;;;;;;5092890;28;20500;-77
2023/05/26 03:14:27;;;;;;;12.18;7.50;;;19.50;94.40;;;;;;5080460;28;20055;-77
2023/05/26 03:17:31;;;;;;;21.52;8.43;;;19.40;94.80;;;;;;5092015;28;20586;-77
2023/05/26 03:20:35;;;;;;;9.98;6.85;;;19.40;94.80;;;;;;5080516;28;20050;-77
2023/05/26 03:23:39;;;;;;;12.05;7.40;;;19.30;95.00;;;;;;5093085;28;20039;-76
2023/05/26 03:26:43;;;;;;;9.52;7.45;;;19.30;95.30;;;;;;5092659;28;20541;-77
2023/05/26 03:29:48;;;;;;;12.02;7.70;;;19.30;95.40;;;;;;5092930;28;20051;-77
2023/05/26 03:32:52;;;;;;;13.35;7.82;;;19.20;95.20;;;;;;5080167;28;20047;-76
2023/05/26 03:36:00;;;;;;;10.85;7.10;;;19.20;95.20;;;;;;5092462;28;20525;-77
2023/05/26 03:39:05;;;;;;;16.73;7.07;;;19.20;94.40;;;;;;5080091;28;20403;-76
2023/05/26 03:42:10;;;;;;;11.95;7.45;;;19.40;94.00;;;;;;5068657;28;20051;-77
2023/05/26 03:45:17;;;;;;;15.57;8.25;;;19.50;94.10;;;;;;5080182;28;20399;-77
2023/05/26 03:48:22;;;;;;;10.38;6.80;;;19.50;94.40;;;;;;5080191;28;20055;-77
2023/05/26 03:51:26;;;;;;;9.35;6.88;;;19.60;93.80;;;;;;5091644;28;20511;-78
2023/05/26 03:54:30;;;;;;;10.90;6.95;;;19.70;93.20;;;;;;5079590;28;20046;-78
2023/05/26 03:57:35;;;;;;;15.65;7.95;;;19.80;93.00;;;;;;5079992;28;20043;-77
2023/05/26 04:00:41;;;;;;;21.70;7.80;;;19.80;93.30;;;;;;5079647;28;20046;-76
2023/05/26 04:03:45;;;;;;;17.30;8.02;;;19.80;93.90;;;;;;5068254;28;20043;-77
2023/05/26 04:06:50;;;;;;;23.48;10.57;;;19.80;94.30;;;;;;5091200;28;20043;-76
2023/05/26 04:09:54;;;;;;;15.77;8.15;;;19.80;94.40;;;;;;5079455;28;20051;-76
2023/05/26 04:12:58;;;;;;;17.35;9.60;;;19.80;94.40;;;;;;5091658;28;20510;-77
2023/05/26 04:16:02;;;;;;;14.70;7.80;;;19.80;94.30;;;;;;5091681;28;20071;-76
2023/05/26 04:19:06;;;;;;;20.65;9.27;;;19.90;94.00;;;;;;5079373;28;20043;-76
2023/05/26 04:22:11;;;;;;;22.27;8.65;;;19.90;94.30;;;;;;5079396;28;20047;-76
2023/05/26 04:25:15;;;;;;;15.57;7.60;;;20.00;94.50;;;;;;5078476;28;20043;-76
2023/05/26 04:28:35;;;;;;;27.93;9.63;;;20.10;94.50;;;;;;5079337;28;20503;-77
2023/05/26 04:31:59;;;;;;;26.98;9.60;;;20.20;94.10;;;;;;5079386;28;20063;-77
2023/05/26 04:35:19;;;;;;;15.55;8.18;;;20.30;94.20;;;;;;5079236;28;20051;-75
2023/05/26 04:38:23;;;;;;;18.67;8.73;;;20.40;94.00;;;;;;5067591;28;20035;-77
2023/05/26 04:41:27;;;;;;;22.75;9.02;;;20.50;93.90;;;;;;5091820;28;20046;-76
2023/05/26 04:44:32;;;;;;;15.18;8.70;;;20.50;94.20;;;;;;5091621;28;20042;-76
2023/05/26 04:47:37;;;;;;;11.80;7.65;;;20.60;94.10;;;;;;5079100;28;20051;-76
2023/05/26 04:50:41;;;;;;;13.35;7.70;;;20.70;93.90;;;;;;5078709;28;20502;-78
2023/05/26 04:53:44;;;;;;;13.38;8.20;;;20.90;93.70;;;;;;5091081;28;20039;-77
2023/05/26 04:56:48;;;;;;;19.00;7.50;;;21.10;93.40;;;;;;5078791;28;20063;-78
2023/05/26 04:59:55;;;;;;;27.38;10.65;;;21.20;93.50;;;;;;5090224;28;20039;-78
2023/05/26 05:02:59;;;;;;;33.08;9.23;;;21.20;93.30;;;;;;5078678;28;20419;-77
2023/05/26 05:06:23;;;;;;;22.77;8.63;;;21.10;93.40;;;;;;5091126;28;20403;-77
2023/05/26 05:09:27;;;;;;;10.98;8.02;;;20.90;93.90;;;;;;5078586;28;20055;-75
2023/05/26 05:12:32;;;;;;;21.60;8.75;;;20.90;93.90;;;;;;5078587;28;20043;-76
2023/05/26 05:15:36;;;;;;;28.80;10.43;;;21.20;94.00;;;;;;5078780;28;20051;-78
2023/05/26 05:18:40;;;;;;;18.40;7.43;;;21.50;93.70;;;;;;5078874;28;20047;-77
2023/05/26 05:21:43;;;;;;;13.35;6.88;;;21.90;92.80;;;;;;5090952;28;20039;-78
2023/05/26 05:24:48;;;;;;;12.52;7.00;;;22.30;91.90;;;;;;5078535;28;20490;-78
2023/05/26 05:27:52;;;;;;;11.77;6.80;;;22.40;91.70;;;;;;5089205;28;20052;-78
2023/05/26 05:30:57;;;;;;;15.27;7.70;;;22.40;91.30;;;;;;5078103;28;20050;-77
2023/05/26 05:34:02;;;;;;;15.95;7.35;;;22.50;91.30;;;;;;5064721;28;20059;-75
2023/05/26 05:37:06;;;;;;;15.73;8.20;;;22.70;91.30;;;;;;5068274;28;20035;-75
2023/05/26 05:40:11;;;;;;;26.42;9.30;;;22.70;91.00;;;;;;5082065;28;20055;-75
2023/05/26 05:43:15;;;;;;;21.85;9.68;;;22.80;91.30;;;;;;5058823;28;20047;-75
2023/05/26 05:46:19;;;;;;;43.72;9.45;;;22.90;91.70;;;;;;5082383;28;20035;-74
2023/05/26 05:49:35;;;;;;;34.58;10.55;;;23.00;92.20;;;;;;5082078;28;20035;-77
2023/05/26 05:52:40;;;;;;;29.20;9.70;;;22.90;92.60;;;;;;5070577;28;20039;-78
2023/05/26 05:55:46;;;;;;;31.83;10.27;;;22.80;92.90;;;;;;5082219;28;20733;-74
2023/05/26 05:58:50;;;;;;;30.80;10.38;;;22.70;93.00;;;;;;5069160;28;20043;-75
2023/05/26 06:01:55;;;;;;;27.63;12.00;;;22.60;92.50;;;;;;5092524;28;20043;-74
2023/05/26 06:05:00;;;;;;;26.67;12.52;;;22.60;92.40;;;;;;5081996;28;20098;-75
2023/05/26 06:08:04;;;;;;;20.42;10.77;;;22.50;92.10;;;;;;5081520;28;20051;-74
2023/05/26 06:11:08;;;;;;;33.08;12.52;;;22.40;92.20;;;;;;5082064;28;20039;-75
2023/05/26 06:14:17;;;;;;;26.67;13.32;;;22.50;92.30;;;;;;5081704;28;20047;-74
2023/05/26 06:17:21;;;;;;;33.92;14.07;;;22.70;92.10;;;;;;5081865;28;20043;-75
2023/05/26 06:20:25;;;;;;;17.63;11.73;;;22.70;91.80;;;;;;5094116;28;20047;-76
2023/05/26 06:23:29;;;;;;;23.35;12.57;;;22.70;91.70;;;;;;5081252;28;20051;-75
2023/05/26 06:26:34;;;;;;;21.27;10.50;;;22.70;91.50;;;;;;5081531;28;20047;-75
2023/05/26 06:29:38;;;;;;;29.73;12.65;;;22.70;91.50;;;;;;5081625;28;20051;-75
2023/05/26 06:32:43;;;;;;;37.33;12.57;;;22.70;91.60;;;;;;5081110;28;20051;-74
2023/05/26 06:35:47;;;;;;;26.90;11.55;;;22.70;91.80;;;;;;5081415;28;20400;-76
2023/05/26 06:38:51;;;;;;;21.38;11.52;;;22.70;91.90;;;;;;5081050;28;20043;-75
2023/05/26 06:41:55;;;;;;;24.92;12.57;;;22.70;91.50;;;;;;5081124;28;20051;-76
2023/05/26 06:44:59;;;;;;;31.77;14.88;;;22.70;90.90;;;;;;5081305;28;20516;-76
2023/05/26 06:48:03;;;;;;;27.20;14.05;;;22.70;91.00;;;;;;5080600;28;20047;-76
2023/05/26 06:51:13;;;;;;;23.52;11.63;;;22.70;91.10;;;;;;5081367;28;20047;-76
2023/05/26 06:54:18;;;;;;;26.25;13.38;;;22.80;91.20;;;;;;5082080;28;20059;-74
2023/05/26 06:57:22;;;;;;;28.25;13.38;;;22.80;91.30;;;;;;5081038;28;20399;-75
2023/05/26 07:00:26;;;;;;;21.58;11.68;;;22.80;91.60;;;;;;5093202;28;20622;-74
2023/05/26 07:03:41;;;;;;;12.07;7.03;;;22.80;92.70;;;;;;5080961;28;20039;-76
2023/05/26 07:06:45;;;;;;;8.90;6.85;;;22.80;88.50;;;;;;5092714;28;20609;-75
2023/05/26 07:09:49;;;;;;;15.02;8.10;;;22.80;90.10;;;;;;5081475;28;20047;-74
2023/05/26 07:12:53;;;;;;;11.02;8.07;;;22.80;91.70;;;;;;5080897;28;20055;-76
2023/05/26 07:16:02;;;;;;;15.38;7.70;;;22.80;92.30;;;;;;5081035;28;20054;-75
2023/05/26 07:19:06;;;;;;;12.43;7.32;;;22.90;92.50;;;;;;5080664;28;20039;-75
2023/05/26 07:22:11;;;;;;;19.50;7.88;;;22.80;92.20;;;;;;5092503;28;20046;-75
2023/05/26 07:25:26;;;;;;;16.45;8.48;;;22.80;92.10;;;;;;5080300;28;20083;-75
2023/05/26 07:28:31;;;;;;;26.02;8.05;;;22.80;91.70;;;;;;5080193;28;20054;-75
2023/05/26 07:31:35;;;;;;;17.48;8.82;;;22.80;91.40;;;;;;5068488;28;20066;-75
2023/05/26 07:34:39;;;;;;;17.05;7.70;;;22.80;91.20;;;;;;5080030;28;20058;-76
2023/05/26 07:37:43;;;;;;;17.63;8.27;;;22.80;91.10;;;;;;5068713;28;20399;-75
2023/05/26 07:40:47;;;;;;;12.10;7.50;;;22.90;91.00;;;;;;5092853;28;20047;-76
2023/05/26 07:43:51;;;;;;;12.05;7.68;;;22.90;90.80;;;;;;5092641;28;20059;-75
2023/05/26 07:46:55;;;;;;;15.88;7.70;;;22.90;90.90;;;;;;5092451;28;20039;-76
2023/05/26 07:49:59;;;;;;;13.43;7.80;;;22.90;90.80;;;;;;5092196;28;20043;-75
2023/05/26 07:53:03;;;;;;;14.30;6.85;;;22.90;90.70;;;;;;5092307;28;20042;-76
2023/05/26 07:56:07;;;;;;;12.63;7.20;;;23.00;90.80;;;;;;5091096;28;20047;-75
2023/05/26 07:59:11;;;;;;;13.50;7.22;;;23.00;90.80;;;;;;5090866;28;20067;-72
2023/05/26 08:02:16;;;;;;;18.08;7.40;;;23.10;90.70;;;;;;5090948;28;20060;-72
2023/05/26 08:05:20;;;;;;;9.13;5.60;;;23.10;90.60;;;;;;5090613;28;20059;-75
2023/05/26 08:08:24;;;;;;;14.50;6.85;;;23.10;90.50;;;;;;5090978;28;20083;-74
2023/05/26 08:11:28;;;;;;;9.68;6.18;;;23.20;90.40;;;;;;5091110;28;20047;-71
2023/05/26 08:14:32;;;;;;;7.65;5.68;;;23.30;90.60;;;;;;5090895;28;20055;-73
2023/05/26 08:17:36;;;;;;;12.13;6.88;;;23.40;90.30;;;;;;5091219;28;20368;-73
2023/05/26 08:20:40;;;;;;;12.48;6.75;;;23.70;90.30;;;;;;5091798;28;20051;-76
2023/05/26 08:23:44;;;;;;;12.05;7.05;;;24.20;90.40;;;;;;5091903;28;20043;-79
2023/05/26 08:26:49;;;;;;;12.80;6.85;;;24.80;90.10;;;;;;5091778;28;20199;-75
2023/05/26 08:29:53;;;;;;;12.55;6.88;;;25.50;87.40;;;;;;5091923;28;20054;-73
2023/05/26 08:32:57;;;;;;;12.98;5.72;;;26.10;86.10;;;;;;5079179;28;20043;-72
2023/05/26 08:36:01;;;;;;;10.05;6.07;;;26.60;84.80;;;;;;5091332;28;20054;-79
2023/05/26 08:39:05;;;;;;;17.02;4.93;;;27.00;80.30;;;;;;5091341;28;20034;-76
2023/05/26 08:42:18;;;;;;;6.72;4.57;;;27.20;79.20;;;;;;5078954;28;20507;-74
2023/05/26 08:45:24;;;;;;;20.00;5.72;;;26.90;78.70;;;;;;5091482;28;20470;-73
2023/05/26 08:48:28;;;;;;;19.90;4.93;;;26.90;78.80;;;;;;5091638;28;20047;-75
2023/05/26 08:51:36;;;;;;;14.40;5.25;;;26.90;79.80;;;;;;5091644;28;20041;-76
2023/05/26 08:54:41;;;;;;;6.53;4.32;;;26.90;80.10;;;;;;5078952;28;20055;-82
2023/05/26 08:57:45;;;;;;;8.35;4.72;;;26.80;78.60;;;;;;5091752;28;20043;-76
2023/05/26 09:00:49;;;;;;;9.65;4.80;;;26.80;79.20;;;;;;5078744;28;20047;-76
2023/05/26 09:03:53;;;;;;;8.52;4.93;;;26.70;79.00;;;;;;5091262;28;20072;-80
2023/05/26 09:06:58;;;;;;;9.02;4.75;;;26.90;79.30;;;;;;5090985;28;20075;-77
2023/05/26 09:10:28;;;;;;;7.93;5.00;;;26.80;77.80;;;;;;5090999;28;20051;-81
2023/05/26 09:13:40;;;;;;;10.20;4.70;;;26.80;78.30;;;;;;5090932;28;20043;-79
2023/05/26 09:16:43;;;;;;;;;;;26.80;78.50;;;;;;5091767;28;20047;-81
2023/05/26 09:19:47;;;;;;;8.30;4.85;;;26.70;79.10;;;;;;5091114;28;19910;-76
2023/05/26 09:22:55;;;;;;;11.80;4.93;;;26.60;79.00;;;;;;5091077;28;20055;-77
2023/05/26 09:25:58;;;;;;;6.53;4.38;;;26.50;78.40;;;;;;5078588;28;20055;-80
2023/05/26 09:29:05;;;;;;;9.10;4.82;;;26.30;78.80;;;;;;5090755;28;20043;-74
2023/05/26 09:32:09;;;;;;;6.72;5.15;;;26.30;79.60;;;;;;5090573;28;20162;-76
2023/05/26 09:35:15;;;;;;;12.45;5.10;;;26.40;79.40;;;;;;5089485;28;20063;-74
2023/05/26 09:38:20;;;;;;;8.55;5.22;;;26.50;79.70;;;;;;5090563;28;20047;-75
2023/05/26 09:41:38;;;;;;;11.43;5.10;;;26.70;79.60;;;;;;5090745;28;20051;-75
2023/05/26 09:44:49;;;;;;;11.20;4.65;;;26.90;78.60;;;;;;5090547;28;20450;-75
2023/05/26 09:47:57;;;;;;;6.75;4.35;;;26.80;78.00;;;;;;5077946;28;20062;-73
2023/05/26 09:51:01;;;;;;;10.25;4.80;;;26.60;79.20;;;;;;5090531;28;20055;-75
2023/05/26 09:54:08;;;;;;;10.88;4.93;;;26.50;79.80;;;;;;5090547;28;20051;-75
2023/05/26 09:57:14;;;;;;;8.85;4.40;;;26.50;79.90;;;;;;5078185;28;20051;-75
2023/05/26 10:00:19;;;;;;;9.57;4.40;;;26.40;79.60;;;;;;5090533;28;20047;-74
2023/05/26 10:03:23;;;;;;;5.70;4.68;;;26.40;78.90;;;;;;5090204;28;20043;-75
2023/05/26 10:06:30;;;;;;;8.85;4.72;;;26.40;79.20;;;;;;5090378;28;20051;-74
2023/05/26 10:09:35;;;;;;;9.15;4.30;;;26.30;80.10;;;;;;5090223;28;20055;-73
2023/05/26 10:12:40;;;;;;;10.35;4.55;;;26.40;80.30;;;;;;5090332;28;20047;-76
2023/05/26 10:15:45;;;;;;;6.38;4.60;;;26.40;80.20;;;;;;5090248;28;20051;-73
2023/05/26 10:18:50;;;;;;;13.55;4.85;;;26.40;79.70;;;;;;5078106;28;20043;-74
2023/05/26 10:22:01;;;;;;;8.05;5.28;;;26.40;80.30;;;;;;5090369;28;20050;-75
2023/05/26 10:25:30;;;;;;;6.43;4.78;;;26.40;80.20;;;;;;5093901;28;20047;-74
2023/05/26 10:28:44;;;;;;;13.18;4.60;;;26.40;79.70;;;;;;5094014;28;20510;-76
2023/05/26 10:31:47;;;;;;;11.48;4.75;;;26.40;80.20;;;;;;5094097;28;20047;-76
2023/05/26 10:34:51;;;;;;;7.03;4.63;;;26.40;80.10;;;;;;5093523;28;20078;-76
2023/05/26 10:37:55;;;;;;;10.95;4.97;;;26.40;80.60;;;;;;5079566;28;20058;-75
2023/05/26 10:40:59;;;;;;;11.02;4.90;;;26.40;82.10;;;;;;5093391;28;20043;-75
2023/05/26 10:44:04;;;;;;;8.63;4.75;;;26.40;82.60;;;;;;5093512;28;20399;-81
2023/05/26 10:47:16;;;;;;;7.93;4.45;;;26.40;82.00;;;;;;5093847;28;20047;-76
2023/05/26 10:50:20;;;;;;;6.50;4.57;;;26.40;82.00;;;;;;5081107;28;20043;-74
2023/05/26 10:53:26;;;;;;;8.20;5.00;;;26.40;81.80;;;;;;5093577;28;20039;-74
2023/05/26 10:56:41;;;;;;;7.78;4.90;;;26.40;82.10;;;;;;5094009;28;20051;-73
2023/05/26 10:59:47;;;;;;;7.40;4.95;;;26.50;82.10;;;;;;5080622;28;20039;-77
2023/05/26 11:02:51;;;;;;;9.63;4.68;;;26.50;81.40;;;;;;5092680;28;20051;-77
2023/05/26 11:05:55;;;;;;;4.95;3.75;;;26.60;80.60;;;;;;5093088;28;20043;-75
2023/05/26 11:09:05;;;;;;;6.88;4.60;;;26.60;80.80;;;;;;5091807;28;20051;-75
2023/05/26 11:12:09;;;;;;;9.30;3.90;;;26.70;82.70;;;;;;5093393;28;20051;-73
2023/05/26 11:15:31;;;;;;;5.65;4.10;;;26.90;81.90;;;;;;5092753;28;20059;-74
2023/05/26 11:18:35;;;;;;;7.55;4.53;;;27.10;81.40;;;;;;5093248;28;20048;-78
2023/05/26 11:21:40;;;;;;;12.77;4.43;;;27.30;80.60;;;;;;5092946;28;20043;-75
2023/05/26 11:24:44;;;;;;;6.03;4.32;;;27.40;79.60;;;;;;5080461;28;20051;-74
2023/05/26 11:27:49;;;;;;;7.00;4.35;;;27.40;79.50;;;;;;5092673;28;20577;-76
2023/05/26 11:30:53;;;;;;;8.82;4.38;;;27.50;79.00;;;;;;5093133;28;20047;-76
2023/05/26 11:34:00;;;;;;;8.52;4.63;;;27.60;79.80;;;;;;5092375;28;20213;-77
2023/05/26 11:37:07;;;;;;;11.02;4.90;;;27.60;78.90;;;;;;5092861;28;20051;-76
2023/05/26 11:40:12;;;;;;;6.80;4.18;;;27.50;79.50;;;;;;5080077;28;20051;-76
2023/05/26 11:43:16;;;;;;;7.38;4.32;;;27.50;78.80;;;;;;5092535;28;20043;-76
2023/05/26 11:46:21;;;;;;;10.98;4.03;;;27.50;79.00;;;;;;5092845;28;20063;-77
2023/05/26 11:49:25;;;;;;;7.07;3.83;;;27.30;79.40;;;;;;5092440;28;20039;-75
2023/05/26 11:52:29;;;;;;;7.22;3.95;;;27.30;78.40;;;;;;5079763;28;20043;-76
2023/05/26 11:55:33;;;;;;;14.10;4.20;;;27.20;78.70;;;;;;5092182;28;20063;-76
2023/05/26 11:58:41;;;;;;;11.30;3.95;;;27.10;78.20;;;;;;5091956;28;20043;-75
2023/05/26 12:01:45;;;;;;;5.65;4.22;;;27.00;79.20;;;;;;5092107;28;20064;-77
2023/05/26 12:04:49;;;;;;;5.47;3.97;;;27.00;79.90;;;;;;5092249;28;20039;-76
2023/05/26 12:08:07;;;;;;;6.15;4.25;;;26.90;79.80;;;;;;5092009;28;20055;-74
2023/05/26 12:11:15;;;;;;;7.30;4.25;;;26.80;80.20;;;;;;5092119;28;20047;-77
2023/05/26 12:14:22;;;;;;;8.90;4.22;;;26.70;80.40;;;;;;5090141;28;20764;-75
2023/05/26 12:17:26;;;;;;;7.30;4.50;;;26.60;79.30;;;;;;5090759;28;20055;-75
2023/05/26 12:20:31;;;;;;;8.38;5.07;;;26.60;80.70;;;;;;5091235;28;20031;-74
2023/05/26 12:23:35;;;;;;;10.57;5.32;;;26.50;82.10;;;;;;5091477;28;20043;-74
2023/05/26 12:26:40;;;;;;;8.88;5.00;;;26.30;82.20;;;;;;5091958;28;20526;-75
2023/05/26 12:29:44;;;;;;;9.55;4.70;;;26.20;82.70;;;;;;5079316;28;20051;-73
2023/05/26 12:32:49;;;;;;;10.75;4.70;;;26.30;83.60;;;;;;5091389;28;20055;-73
2023/05/26 12:35:53;;;;;;;10.32;5.15;;;26.20;84.10;;;;;;5078721;28;20059;-72
2023/05/26 12:38:56;;;;;;;11.60;5.40;;;26.20;83.80;;;;;;5091499;28;20502;-71
2023/05/26 12:42:01;;;;;;;8.93;4.07;;;26.20;83.70;;;;;;5091322;28;20051;-72
2023/05/26 12:45:06;;;;;;;10.48;4.43;;;26.30;84.20;;;;;;5090988;28;20051;-73
2023/05/26 12:48:10;;;;;;;6.95;4.15;;;26.40;84.50;;;;;;5091595;28;20039;-73
2023/05/26 12:51:16;;;;;;;7.35;4.60;;;26.50;83.10;;;;;;5091560;28;20043;-72
2023/05/26 12:54:20;;;;;;;7.15;4.90;;;26.60;82.70;;;;;;5091336;28;20054;-70
2023/05/26 12:57:23;;;;;;;6.05;4.30;;;26.70;81.20;;;;;;5091166;28;20314;-75
2023/05/26 13:00:28;;;;;;;7.18;4.60;;;26.80;81.90;;;;;;5078976;28;20395;-75
2023/05/26 13:03:33;;;;;;;11.40;4.40;;;26.80;80.80;;;;;;5067247;28;20063;-71
2023/05/26 13:06:36;;;;;;;5.68;4.55;;;26.90;81.80;;;;;;5078263;28;20502;-72
2023/05/26 13:09:40;;;;;;;8.23;5.65;;;26.90;82.80;;;;;;5091155;28;20051;-73
2023/05/26 13:12:44;;;;;;;7.90;5.10;;;26.90;82.60;;;;;;5078646;28;20387;-72
2023/05/26 13:15:48;;;;;;;7.63;4.63;;;27.00;82.90;;;;;;5078315;28;20059;-73
2023/05/26 13:18:53;;;;;;;4.85;3.67;;;26.90;81.00;;;;;;5091233;28;20494;-72
2023/05/26 13:21:56;;;;;;;7.70;4.68;;;26.90;79.60;;;;;;5091189;28;20055;-73
2023/05/26 13:25:01;;;;;;;5.72;4.00;;;26.90;79.50;;;;;;5091048;28;20392;-75
2023/05/26 13:28:06;;;;;;;7.57;4.07;;;26.90;80.30;;;;;;5078654;28;20053;-73
2023/05/26 13:31:10;;;;;;;5.55;4.30;;;27.00;79.30;;;;;;5090713;28;20062;-72
2023/05/26 13:34:14;;;;;;;8.35;4.47;;;27.00;79.80;;;;;;5090295;28;20039;-73
2023/05/26 13:37:18;;;;;;;7.88;4.35;;;27.00;80.40;;;;;;5078008;28;20074;-73
2023/05/26 13:40:22;;;;;;;6.75;4.57;;;27.00;81.00;;;;;;5089351;28;20043;-75
2023/05/26 13:43:27;;;;;;;8.20;4.75;;;27.00;81.10;;;;;;5090585;28;20047;-73
2023/05/26 13:46:30;;;;;;;13.30;4.60;;;26.90;81.20;;;;;;5090778;28;20043;-74
2023/05/26 13:49:35;;;;;;;15.77;4.90;;;26.80;81.80;;;;;;5091031;28;20394;-75
2023/05/26 13:52:39;;;;;;;12.18;4.30;;;26.70;81.20;;;;;;5090720;28;20051;-73
2023/05/26 13:55:44;;;;;;;11.30;4.15;;;26.50;82.60;;;;;;5066470;28;20055;-72
2023/05/26 13:58:48;;;;;;;12.98;4.00;;;26.40;84.70;;;;;;5093949;28;20047;-75
2023/05/26 14:01:52;;;;;;;14.82;3.95;;;26.30;85.20;;;;;;5094103;28;20392;-72
2023/05/26 14:04:56;;;;;;;11.75;3.90;;;26.10;85.90;;;;;;5081722;28;20047;-76
2023/05/26 14:08:05;;;;;;;7.50;4.40;;;25.90;86.10;;;;;;5094026;28;20048;-75
2023/05/26 14:11:10;;;;;;;8.57;3.75;;;25.90;86.50;;;;;;5093617;28;20051;-75
2023/05/26 14:14:15;;;;;;;15.95;5.05;;;25.80;86.90;;;;;;5094146;28;20043;-73
2023/05/26 14:17:19;;;;;;;34.70;8.35;;;25.60;90.10;;;;;;5094327;28;20039;-75
2023/05/26 14:20:24;;;;;;;32.35;9.40;;;25.50;93.00;;;;;;5094359;28;20047;-75
2023/05/26 14:23:29;;;;;;;17.65;7.20;;;25.20;94.70;;;;;;5081710;28;20047;-72
2023/05/26 14:26:33;;;;;;;20.35;8.98;;;24.60;94.50;;;;;;5094183;28;20400;-74
2023/05/26 14:29:37;;;;;;;30.98;9.65;;;24.30;94.90;;;;;;5094353;28;20091;-73
2023/05/26 14:32:41;;;;;;;28.40;10.02;;;23.90;96.00;;;;;;5094008;28;20051;-74
2023/05/26 14:35:48;;;;;;;32.45;10.70;;;23.50;96.90;;;;;;5093999;28;20051;-72
2023/05/26 14:38:52;;;;;;;26.63;10.50;;;23.00;98.40;;;;;;5093774;28;20051;-72
2023/05/26 14:41:56;;;;;;;25.75;10.45;;;22.70;99.50;;;;;;5094026;28;20047;-72
2023/05/26 14:44:59;;;;;;;18.92;9.25;;;22.50;99.90;;;;;;5093634;28;20046;-72
2023/05/26 14:48:04;;;;;;;20.25;8.80;;;22.60;99.90;;;;;;5094088;28;20059;-74
2023/05/26 14:51:07;;;;;;;19.15;10.20;;;22.60;99.90;;;;;;5093936;28;20046;-74
2023/05/26 14:54:11;;;;;;;23.73;12.38;;;22.60;99.90;;;;;;5093557;28;20039;-73
2023/05/26 14:57:15;;;;;;;18.30;10.88;;;22.70;99.90;;;;;;5081361;28;20067;-74
2023/05/26 15:00:19;;;;;;;23.20;10.15;;;22.70;99.90;;;;;;5093464;28;20043;-72
2023/05/26 15:03:23;;;;;;;19.00;9.85;;;22.80;99.90;;;;;;5093370;28;20042;-77
2023/05/26 15:06:30;;;;;;;23.67;9.52;;;22.80;99.90;;;;;;5080609;28;20404;-76
2023/05/26 15:09:34;;;;;;;30.30;8.52;;;22.70;99.90;;;;;;5092892;28;20538;-73
2023/05/26 15:12:38;;;;;;;14.35;8.93;;;22.70;99.90;;;;;;5080587;28;20055;-74
2023/05/26 15:15:41;;;;;;;15.88;8.93;;;22.60;99.90;;;;;;5093385;28;20070;-75
2023/05/26 15:18:46;;;;;;;19.20;9.77;;;22.40;99.90;;;;;;5093071;28;20042;-72
2023/05/26 15:21:50;;;;;;;19.20;10.10;;;22.30;99.90;;;;;;5080685;28;20081;-73
2023/05/26 15:24:54;;;;;;;16.33;9.50;;;22.40;99.90;;;;;;5093009;28;20047;-76
2023/05/26 15:27:59;;;;;;;16.48;9.95;;;22.40;99.90;;;;;;5092920;28;20669;-73
2023/05/26 15:31:03;;;;;;;16.10;11.02;;;22.40;99.90;;;;;;5093104;28;20043;-77
2023/05/26 15:34:07;;;;;;;17.55;10.30;;;22.40;99.90;;;;;;5092959;28;20110;-76
2023/05/26 15:37:13;;;;;;;15.75;9.63;;;22.40;99.90;;;;;;5092851;28;20055;-73
2023/05/26 15:40:17;;;;;;;23.08;10.10;;;22.40;99.90;;;;;;5092783;28;20042;-73
2023/05/26 15:43:21;;;;;;;20.23;9.80;;;22.50;99.90;;;;;;5092832;28;20102;-77
2023/05/26 15:46:26;;;;;;;15.38;8.93;;;22.30;99.90;;;;;;5092733;28;20047;-76
2023/05/26 15:49:31;;;;;;;20.35;9.35;;;22.10;99.90;;;;;;5092910;28;20125;-76
2023/05/26 15:52:35;;;;;;;11.63;9.02;;;22.00;99.90;;;;;;5092885;28;20039;-77
2023/05/26 15:55:39;;;;;;;14.85;9.50;;;22.20;99.90;;;;;;5092703;28;20043;-78